createdAt,value
2023-03-16T00:00:54.368Z,62.52
2023-03-16T00:01:49.930Z,62.73
2023-03-16T00:02:45.610Z,62.41
2023-03-16T00:03:41.046Z,62.13
2023-03-16T00:04:36.540Z,62.65
2023-03-16T00:05:32.070Z,62.34
2023-03-16T00:06:27.657Z,62.02
2023-03-16T00:07:24.661Z,62.45
2023-03-16T00:08:20.236Z,62.62
2023-03-16T00:09:15.803Z,62.34
2023-03-16T00:10:11.501Z,62.45
2023-03-16T00:11:07.035Z,62.24
2023-03-16T00:12:02.568Z,62.34
2023-03-16T00:12:58.104Z,62.24
2023-03-16T00:13:53.662Z,61.61
2023-03-16T00:14:49.216Z,62.45
2023-03-16T00:15:44.755Z,62.45
2023-03-16T00:16:40.351Z,62.24
2023-03-16T00:17:35.824Z,62.13
2023-03-16T00:18:31.368Z,62.45
2023-03-16T00:19:26.888Z,62.34
2023-03-16T00:20:22.425Z,62.55
2023-03-16T00:21:17.978Z,62.76
2023-03-16T00:22:13.496Z,62.13
2023-03-16T00:23:09.036Z,62.02
2023-03-16T00:24:04.560Z,62.78
2023-03-16T00:25:00.124Z,62.68
2023-03-16T00:25:55.730Z,62.65
2023-03-16T00:26:51.144Z,62.34
2023-03-16T00:27:46.698Z,62.68
2023-03-16T00:28:42.225Z,62.34
2023-03-16T00:29:37.738Z,62.13
2023-03-16T00:30:33.279Z,62.88
2023-03-16T00:31:28.834Z,62.88
2023-03-16T00:32:24.356Z,63.38
2023-03-16T00:33:19.867Z,63.31
2023-03-16T00:34:15.409Z,62.68
2023-03-16T00:35:10.940Z,63.41
2023-03-16T00:36:06.513Z,63.09
2023-03-16T00:37:02.010Z,63.31
2023-03-16T00:37:57.546Z,63.20
2023-03-16T00:38:53.073Z,62.99
2023-03-16T00:39:48.617Z,62.57
2023-03-16T00:40:45.181Z,63.31
2023-03-16T00:41:40.702Z,63.31
2023-03-16T00:42:36.247Z,63.09
2023-03-16T00:43:31.784Z,63.41
2023-03-16T00:44:27.321Z,63.43
2023-03-16T00:45:23.321Z,63.51
2023-03-16T00:46:18.931Z,63.51
2023-03-16T00:47:14.404Z,63.43
2023-03-16T00:48:09.919Z,63.72
2023-03-16T00:49:05.456Z,63.31
2023-03-16T00:50:01.035Z,63.51
2023-03-16T00:50:56.549Z,63.54
2023-03-16T00:51:52.097Z,62.88
2023-03-16T00:52:47.646Z,63.41
2023-03-16T00:53:44.202Z,63.43
2023-03-16T00:54:39.721Z,63.33
2023-03-16T00:55:43.980Z,63.75
2023-03-16T00:56:40.018Z,63.23
2023-03-16T00:57:36.063Z,63.85
2023-03-16T00:58:32.087Z,64.17
2023-03-16T00:59:28.073Z,63.54
2023-03-16T01:00:24.109Z,63.85
2023-03-16T01:01:20.308Z,63.12
2023-03-16T01:02:16.235Z,63.64
2023-03-16T01:03:12.348Z,63.12
2023-03-16T01:04:08.358Z,63.54
2023-03-16T01:05:04.386Z,63.57
2023-03-16T01:06:00.439Z,63.88
2023-03-16T01:06:56.493Z,63.75
2023-03-16T01:07:52.618Z,63.85
2023-03-16T01:08:48.665Z,63.12
2023-03-16T01:09:44.689Z,63.54
2023-03-16T01:10:40.727Z,63.54
2023-03-16T01:11:36.780Z,63.23
2023-03-16T01:12:32.804Z,63.54
2023-03-16T01:13:29.837Z,63.78
2023-03-16T01:14:25.851Z,63.75
2023-03-16T01:15:21.874Z,63.54
2023-03-16T01:16:17.945Z,63.88
2023-03-16T01:17:13.969Z,63.75
2023-03-16T01:18:09.975Z,63.78
2023-03-16T01:19:06.013Z,63.67
2023-03-16T01:20:02.031Z,64.40
2023-03-16T01:20:58.079Z,63.78
2023-03-16T01:21:54.121Z,63.88
2023-03-16T01:22:50.151Z,63.57
2023-03-16T01:23:46.179Z,63.36
2023-03-16T01:24:42.235Z,63.75
2023-03-16T01:25:39.094Z,63.36
2023-03-16T01:26:35.117Z,64.19
2023-03-16T01:27:31.153Z,64.09
2023-03-16T01:28:27.242Z,63.46
2023-03-16T01:29:24.250Z,63.78
2023-03-16T01:30:09.404Z,64.19
2023-03-16T01:31:05.563Z,63.67
2023-03-16T01:32:01.503Z,63.98
2023-03-16T01:32:58.539Z,63.36
2023-03-16T01:33:54.544Z,64.09
2023-03-16T01:34:50.571Z,63.46
2023-03-16T01:35:47.669Z,63.67
2023-03-16T01:36:43.654Z,63.88
2023-03-16T01:37:39.692Z,64.09
2023-03-16T01:38:35.714Z,63.88
2023-03-16T01:39:31.733Z,64.09
2023-03-16T01:40:28.008Z,63.78
2023-03-16T01:41:24.797Z,63.88
2023-03-16T01:42:20.829Z,63.39
2023-03-16T01:43:16.859Z,63.36
2023-03-16T01:44:12.903Z,63.88
2023-03-16T01:45:08.937Z,63.57
2023-03-16T01:46:05.105Z,63.67
2023-03-16T01:47:00.975Z,63.57
2023-03-16T01:47:56.997Z,64.75
2023-03-16T01:48:54.038Z,63.36
2023-03-16T01:49:50.056Z,63.57
2023-03-16T01:50:46.104Z,63.81
2023-03-16T01:51:42.109Z,63.91
2023-03-16T01:52:38.142Z,63.81
2023-03-16T01:53:34.180Z,64.12
2023-03-16T01:54:30.203Z,64.01
2023-03-16T01:55:26.237Z,63.57
2023-03-16T01:56:22.253Z,63.81
2023-03-16T01:57:18.278Z,63.49
2023-03-16T01:58:14.332Z,63.60
2023-03-16T01:59:10.339Z,64.12
2023-03-16T02:00:06.396Z,64.01
2023-03-16T02:01:02.438Z,63.81
2023-03-16T02:01:58.416Z,64.01
2023-03-16T02:02:54.449Z,63.91
2023-03-16T02:03:51.492Z,64.01
2023-03-16T02:04:47.623Z,63.70
2023-03-16T02:05:43.587Z,64.12
2023-03-16T02:06:39.590Z,63.91
2023-03-16T02:07:35.630Z,64.15
2023-03-16T02:08:32.659Z,64.04
2023-03-16T02:09:28.701Z,64.22
2023-03-16T02:10:24.700Z,64.12
2023-03-16T02:11:20.717Z,64.01
2023-03-16T02:12:16.805Z,64.01
2023-03-16T02:13:13.839Z,63.70
2023-03-16T02:14:09.882Z,64.01
2023-03-16T02:15:05.892Z,63.84
2023-03-16T02:16:01.989Z,63.91
2023-03-16T02:16:57.958Z,64.12
2023-03-16T02:17:53.989Z,63.70
2023-03-16T02:18:50.034Z,63.94
2023-03-16T02:19:46.054Z,63.81
2023-03-16T02:20:42.098Z,64.12
2023-03-16T02:21:38.122Z,63.94
2023-03-16T02:22:35.144Z,63.91
2023-03-16T02:23:31.178Z,64.15
2023-03-16T02:24:27.211Z,64.12
2023-03-16T02:25:23.256Z,63.91
2023-03-16T02:26:19.289Z,64.01
2023-03-16T02:27:15.324Z,64.04
2023-03-16T02:28:12.386Z,64.01
2023-03-16T02:29:08.405Z,63.91
2023-03-16T02:30:04.478Z,64.15
2023-03-16T02:31:00.541Z,63.81
2023-03-16T02:31:56.560Z,64.01
2023-03-16T02:32:52.617Z,64.12
2023-03-16T02:33:48.614Z,64.15
2023-03-16T02:34:44.627Z,63.81
2023-03-16T02:35:40.706Z,63.81
2023-03-16T02:36:36.685Z,64.01
2023-03-16T02:37:32.736Z,63.84
2023-03-16T02:38:28.753Z,64.25
2023-03-16T02:39:24.791Z,63.94
2023-03-16T02:40:20.860Z,63.73
2023-03-16T02:41:16.856Z,64.15
2023-03-16T02:42:12.980Z,63.84
2023-03-16T02:43:09.021Z,63.70
2023-03-16T02:44:05.053Z,63.94
2023-03-16T02:45:01.075Z,63.49
2023-03-16T02:45:57.078Z,64.15
2023-03-16T02:46:54.187Z,64.36
2023-03-16T02:47:50.165Z,63.94
2023-03-16T02:48:46.185Z,63.84
2023-03-16T02:49:42.221Z,64.04
2023-03-16T02:50:38.222Z,63.94
2023-03-16T02:51:34.254Z,64.18
2023-03-16T02:52:30.278Z,64.15
2023-03-16T02:53:27.319Z,63.73
2023-03-16T02:54:23.348Z,64.15
2023-03-16T02:55:19.356Z,64.15
2023-03-16T02:56:15.403Z,63.97
2023-03-16T02:57:11.409Z,63.21
2023-03-16T02:58:07.522Z,63.63
2023-03-16T02:59:03.561Z,64.15
2023-03-16T02:59:59.609Z,63.53
2023-03-16T03:00:55.640Z,64.80
2023-03-16T03:01:51.652Z,63.84
2023-03-16T03:02:47.720Z,63.97
2023-03-16T03:03:43.743Z,63.97
2023-03-16T03:04:39.756Z,64.18
2023-03-16T03:05:35.766Z,64.07
2023-03-16T03:06:31.790Z,64.15
2023-03-16T03:07:27.828Z,63.87
2023-03-16T03:08:12.979Z,63.94
2023-03-16T03:08:58.150Z,64.28
2023-03-16T03:09:54.197Z,64.07
2023-03-16T03:10:50.263Z,63.97
2023-03-16T03:11:46.264Z,63.76
2023-03-16T03:12:42.294Z,64.59
2023-03-16T03:13:38.341Z,64.39
2023-03-16T03:14:34.378Z,64.70
2023-03-16T03:15:31.425Z,64.59
2023-03-16T03:16:27.566Z,63.87
2023-03-16T03:17:23.553Z,64.90
2023-03-16T03:18:19.572Z,64.18
2023-03-16T03:19:15.631Z,64.39
2023-03-16T03:20:11.628Z,64.59
2023-03-16T03:21:07.690Z,63.76
2023-03-16T03:22:03.735Z,64.28
2023-03-16T03:22:59.772Z,64.18
2023-03-16T03:23:55.791Z,64.18
2023-03-16T03:24:51.831Z,64.70
2023-03-16T03:25:47.861Z,64.39
2023-03-16T03:26:43.868Z,64.39
2023-03-16T03:27:39.995Z,64.39
2023-03-16T03:28:35.963Z,64.18
2023-03-16T03:29:32.009Z,64.39
2023-03-16T03:30:28.244Z,64.59
2023-03-16T03:31:24.117Z,63.97
2023-03-16T03:32:31.424Z,65.04
2023-03-16T03:33:27.430Z,64.42
2023-03-16T03:34:23.480Z,64.39
2023-03-16T03:35:19.496Z,64.49
2023-03-16T03:36:15.542Z,64.21
2023-03-16T03:37:11.534Z,63.89
2023-03-16T03:38:07.568Z,64.00
2023-03-16T03:39:03.602Z,64.07
2023-03-16T03:39:59.612Z,63.89
2023-03-16T03:40:55.642Z,64.39
2023-03-16T03:41:51.653Z,64.28
2023-03-16T03:42:48.250Z,64.39
2023-03-16T03:43:44.298Z,64.21
2023-03-16T03:44:40.352Z,64.52
2023-03-16T03:45:36.426Z,64.21
2023-03-16T03:46:32.526Z,64.21
2023-03-16T03:47:28.411Z,64.73
2023-03-16T03:48:24.465Z,64.73
2023-03-16T03:49:20.484Z,64.62
2023-03-16T03:50:16.600Z,65.04
2023-03-16T03:51:12.533Z,64.73
2023-03-16T03:52:08.585Z,65.04
2023-03-16T03:53:04.608Z,64.62
2023-03-16T03:54:00.725Z,64.62
2023-03-16T03:54:56.693Z,64.73
2023-03-16T03:55:52.733Z,64.52
2023-03-16T03:56:48.766Z,64.83
2023-03-16T03:57:44.800Z,64.42
2023-03-16T03:58:40.816Z,64.52
2023-03-16T03:59:36.839Z,64.52
2023-03-16T04:00:32.868Z,65.04
2023-03-16T04:01:28.914Z,64.42
2023-03-16T04:02:25.046Z,64.62
2023-03-16T04:03:21.016Z,64.62
2023-03-16T04:04:16.969Z,64.52
2023-03-16T04:05:13.012Z,64.45
2023-03-16T04:06:09.093Z,64.73
2023-03-16T04:07:06.102Z,64.62
2023-03-16T04:08:02.127Z,65.04
2023-03-16T04:08:58.251Z,64.94
2023-03-16T04:09:54.260Z,64.52
2023-03-16T04:10:50.293Z,64.52
2023-03-16T04:11:46.353Z,64.83
2023-03-16T04:12:42.387Z,64.76
2023-03-16T04:13:38.410Z,64.55
2023-03-16T04:14:34.464Z,64.97
2023-03-16T04:15:30.474Z,65.59
2023-03-16T04:16:26.539Z,65.25
2023-03-16T04:17:22.532Z,65.07
2023-03-16T04:18:18.598Z,65.04
2023-03-16T04:19:14.640Z,64.55
2023-03-16T04:20:10.621Z,65.14
2023-03-16T04:21:06.633Z,64.42
2023-03-16T04:22:02.686Z,64.83
2023-03-16T04:22:58.877Z,65.28
2023-03-16T04:23:54.716Z,65.07
2023-03-16T04:24:50.731Z,65.35
2023-03-16T04:25:46.738Z,64.65
2023-03-16T04:26:42.786Z,64.86
2023-03-16T04:27:38.813Z,64.62
2023-03-16T04:28:34.855Z,64.86
2023-03-16T04:29:30.890Z,64.45
2023-03-16T04:30:27.162Z,64.65
2023-03-16T04:31:24.019Z,64.62
2023-03-16T04:32:19.953Z,65.04
2023-03-16T04:33:15.998Z,65.07
2023-03-16T04:34:12.010Z,64.34
2023-03-16T04:35:08.050Z,64.65
2023-03-16T04:36:04.224Z,64.76
2023-03-16T04:37:00.129Z,64.55
2023-03-16T04:37:56.190Z,64.55
2023-03-16T04:38:52.198Z,65.48
2023-03-16T04:39:48.204Z,65.91
2023-03-16T04:40:44.229Z,65.17
2023-03-16T04:41:40.266Z,65.28
2023-03-16T04:42:47.622Z,65.07
2023-03-16T04:43:43.662Z,65.28
2023-03-16T04:44:39.676Z,65.28
2023-03-16T04:45:35.747Z,65.38
2023-03-16T04:46:31.864Z,65.80
2023-03-16T04:47:27.817Z,64.55
2023-03-16T04:48:23.863Z,65.48
2023-03-16T04:49:19.886Z,65.48
2023-03-16T04:50:15.944Z,65.91
2023-03-16T04:51:11.963Z,66.01
2023-03-16T04:52:19.271Z,64.45
2023-03-16T04:53:15.295Z,64.97
2023-03-16T04:54:11.306Z,65.28
2023-03-16T04:55:07.333Z,65.48
2023-03-16T04:56:03.362Z,65.59
2023-03-16T04:56:59.376Z,64.97
2023-03-16T04:57:55.439Z,65.48
2023-03-16T04:58:51.439Z,65.38
2023-03-16T04:59:47.455Z,65.17
2023-03-16T05:00:43.494Z,64.55
2023-03-16T05:01:50.864Z,65.28
2023-03-16T05:02:46.814Z,65.17
2023-03-16T05:03:42.851Z,65.28
2023-03-16T05:04:38.873Z,65.91
2023-03-16T05:05:46.281Z,65.91
2023-03-16T05:06:42.224Z,65.62
2023-03-16T05:07:38.266Z,65.28
2023-03-16T05:08:34.313Z,65.80
2023-03-16T05:09:30.329Z,65.91
2023-03-16T05:10:26.740Z,65.52
2023-03-16T05:11:22.435Z,65.80
2023-03-16T05:12:18.446Z,65.59
2023-03-16T05:13:25.750Z,65.59
2023-03-16T05:14:21.807Z,65.91
2023-03-16T05:15:17.845Z,65.80
2023-03-16T05:16:25.283Z,65.70
2023-03-16T05:17:21.236Z,65.38
2023-03-16T05:18:17.305Z,65.31
2023-03-16T05:19:13.295Z,65.70
2023-03-16T05:20:09.309Z,65.48
2023-03-16T05:21:05.353Z,66.14
2023-03-16T05:22:01.346Z,65.20
2023-03-16T05:22:57.436Z,65.91
2023-03-16T05:23:53.420Z,65.31
2023-03-16T05:24:49.434Z,65.17
2023-03-16T05:25:47.160Z,65.00
2023-03-16T05:26:41.535Z,65.62
2023-03-16T05:27:37.550Z,65.38
2023-03-16T05:28:33.559Z,66.11
2023-03-16T05:29:29.567Z,65.52
2023-03-16T05:30:25.598Z,65.00
2023-03-16T05:31:21.675Z,65.83
2023-03-16T05:32:17.681Z,65.80
2023-03-16T05:33:13.715Z,65.94
2023-03-16T05:34:09.737Z,65.83
2023-03-16T05:35:05.740Z,65.62
2023-03-16T05:36:01.890Z,66.14
2023-03-16T05:36:57.963Z,66.14
2023-03-16T05:37:53.932Z,66.04
2023-03-16T05:38:49.954Z,65.73
2023-03-16T05:39:46.020Z,66.04
2023-03-16T05:40:42.036Z,66.04
2023-03-16T05:41:38.070Z,65.41
2023-03-16T05:42:34.091Z,65.00
2023-03-16T05:43:30.147Z,65.73
2023-03-16T05:44:26.153Z,65.00
2023-03-16T05:45:22.163Z,65.52
2023-03-16T05:46:20.675Z,65.62
2023-03-16T05:47:13.796Z,65.70
2023-03-16T05:48:09.808Z,65.94
2023-03-16T05:49:05.837Z,65.41
2023-03-16T05:50:01.863Z,65.52
2023-03-16T05:50:57.877Z,65.52
2023-03-16T05:51:53.910Z,65.38
2023-03-16T05:52:49.991Z,65.38
2023-03-16T05:53:46.029Z,65.10
2023-03-16T05:54:42.049Z,65.73
2023-03-16T05:55:38.084Z,65.80
2023-03-16T05:56:34.222Z,65.38
2023-03-16T05:57:30.135Z,65.28
2023-03-16T05:58:26.167Z,65.48
2023-03-16T05:59:22.206Z,65.00
2023-03-16T06:00:18.262Z,65.52
2023-03-16T06:01:14.294Z,65.91
2023-03-16T06:02:10.287Z,66.01
2023-03-16T06:03:06.387Z,65.48
2023-03-16T06:04:02.435Z,65.80
2023-03-16T06:04:58.401Z,65.38
2023-03-16T06:05:54.423Z,65.59
2023-03-16T06:06:50.521Z,65.91
2023-03-16T06:07:46.561Z,66.22
2023-03-16T06:08:42.578Z,65.91
2023-03-16T06:09:38.599Z,66.01
2023-03-16T06:10:34.678Z,65.80
2023-03-16T06:11:30.697Z,66.29
2023-03-16T06:12:26.701Z,65.35
2023-03-16T06:13:22.739Z,65.91
2023-03-16T06:14:18.767Z,66.11
2023-03-16T06:15:14.794Z,65.56
2023-03-16T06:16:10.941Z,65.35
2023-03-16T06:17:06.922Z,65.88
2023-03-16T06:18:02.908Z,65.67
2023-03-16T06:18:59.939Z,66.08
2023-03-16T06:19:55.510Z,65.77
2023-03-16T06:20:54.492Z,65.01
2023-03-16T06:21:51.151Z,65.22
2023-03-16T06:22:48.438Z,65.84
2023-03-16T06:23:45.146Z,65.22
2023-03-16T06:24:40.612Z,64.80
2023-03-16T06:25:39.514Z,65.01
2023-03-16T06:26:32.784Z,64.15
2023-03-16T06:27:29.697Z,64.36
2023-03-16T06:28:25.725Z,64.22
2023-03-16T06:29:21.757Z,63.94
2023-03-16T06:30:17.821Z,63.73
2023-03-16T06:31:13.805Z,64.98
2023-03-16T06:32:10.855Z,64.12
2023-03-16T06:33:07.037Z,64.01
2023-03-16T06:34:02.932Z,64.01
2023-03-16T06:34:58.945Z,63.70
2023-03-16T06:35:55.070Z,63.39
2023-03-16T06:36:52.032Z,63.91
2023-03-16T06:37:48.102Z,63.57
2023-03-16T06:38:44.240Z,63.98
2023-03-16T06:39:40.307Z,63.57
2023-03-16T06:40:36.382Z,63.88
2023-03-16T06:41:32.339Z,63.15
2023-03-16T06:42:28.434Z,62.81
2023-03-16T06:43:24.438Z,63.33
2023-03-16T06:44:20.448Z,63.33
2023-03-16T06:45:16.511Z,62.60
2023-03-16T06:46:12.669Z,61.88
2023-03-16T06:47:08.557Z,62.47
2023-03-16T06:48:04.579Z,62.78
2023-03-16T06:49:00.620Z,62.68
2023-03-16T06:49:56.615Z,62.16
2023-03-16T06:50:52.664Z,61.95
2023-03-16T06:51:48.668Z,62.16
2023-03-16T06:52:44.699Z,62.45
2023-03-16T06:53:40.733Z,62.68
2023-03-16T06:54:36.972Z,61.43
2023-03-16T06:55:41.242Z,62.55
2023-03-16T06:56:36.753Z,61.82
2023-03-16T06:57:32.332Z,61.82
2023-03-16T06:58:28.310Z,62.34
2023-03-16T06:59:24.859Z,61.71
2023-03-16T07:00:20.380Z,61.79
2023-03-16T07:01:16.078Z,62.21
2023-03-16T07:02:11.480Z,62.10
2023-03-16T07:03:07.016Z,61.90
2023-03-16T07:04:02.577Z,61.58
2023-03-16T07:04:58.091Z,61.45
2023-03-16T07:05:53.643Z,62.07
2023-03-16T07:06:49.181Z,61.87
2023-03-16T07:07:44.878Z,61.45
2023-03-16T07:08:40.828Z,61.04
2023-03-16T07:09:39.170Z,61.22
2023-03-16T07:10:31.953Z,61.22
2023-03-16T07:11:28.464Z,60.80
2023-03-16T07:12:24.488Z,61.32
2023-03-16T07:13:20.057Z,61.08
2023-03-16T07:14:15.582Z,61.01
2023-03-16T07:15:11.128Z,60.77
2023-03-16T07:16:06.870Z,60.77
2023-03-16T07:17:02.315Z,60.36
2023-03-16T07:17:57.769Z,59.74
2023-03-16T07:18:53.320Z,59.91
2023-03-16T07:19:48.902Z,60.05
2023-03-16T07:20:44.454Z,60.02
2023-03-16T07:21:40.464Z,60.22
2023-03-16T07:22:36.481Z,60.12
2023-03-16T07:23:32.505Z,60.33
2023-03-16T07:24:28.528Z,59.50
2023-03-16T07:25:24.559Z,60.02
2023-03-16T07:26:20.152Z,59.58
2023-03-16T07:27:17.183Z,59.06
2023-03-16T07:28:13.213Z,59.16
2023-03-16T07:29:09.239Z,59.27
2023-03-16T07:30:05.254Z,58.93
2023-03-16T07:31:04.185Z,59.34
2023-03-16T07:31:57.312Z,58.62
2023-03-16T07:32:53.440Z,58.38
2023-03-16T07:33:49.317Z,58.51
2023-03-16T07:34:45.320Z,59.45
2023-03-16T07:35:41.343Z,58.69
2023-03-16T07:36:48.644Z,58.98
2023-03-16T07:37:44.690Z,58.90
2023-03-16T07:38:40.681Z,58.87
2023-03-16T07:39:36.698Z,58.44
2023-03-16T07:40:33.729Z,58.77
2023-03-16T07:41:32.654Z,58.54
2023-03-16T07:42:26.767Z,58.23
2023-03-16T07:43:22.781Z,58.12
2023-03-16T07:44:18.814Z,58.40
2023-03-16T07:45:14.816Z,57.89
2023-03-16T07:46:10.406Z,58.20
2023-03-16T07:47:06.411Z,58.61
2023-03-16T07:48:02.422Z,57.97
2023-03-16T07:48:57.963Z,57.55
2023-03-16T07:49:53.995Z,57.14
2023-03-16T07:50:51.020Z,57.14
2023-03-16T07:51:47.024Z,57.53
2023-03-16T07:52:43.054Z,57.42
2023-03-16T07:53:39.136Z,57.50
2023-03-16T07:54:35.126Z,56.98
2023-03-16T07:55:31.167Z,56.57
2023-03-16T07:56:31.443Z,56.44
2023-03-16T07:57:23.193Z,55.93
2023-03-16T07:58:19.211Z,55.41
2023-03-16T07:59:14.780Z,55.72
2023-03-16T08:00:10.841Z,56.23
2023-03-16T08:01:06.817Z,55.72
2023-03-16T08:02:02.930Z,55.69
2023-03-16T08:02:58.877Z,55.46
2023-03-16T08:03:54.950Z,55.28
2023-03-16T08:04:50.560Z,54.33
2023-03-16T08:05:46.564Z,54.51
2023-03-16T08:06:42.602Z,55.10
2023-03-16T08:07:38.638Z,54.79
2023-03-16T08:08:34.644Z,53.74
2023-03-16T08:09:31.685Z,53.74
2023-03-16T08:10:29.105Z,54.05
2023-03-16T08:11:24.747Z,52.78
2023-03-16T08:12:20.757Z,52.97
2023-03-16T08:13:16.308Z,51.94
2023-03-16T08:14:11.864Z,51.92
2023-03-16T08:15:07.871Z,53.13
2023-03-16T08:16:04.003Z,52.61
2023-03-16T08:16:59.529Z,51.37
2023-03-16T08:17:55.098Z,51.76
2023-03-16T08:18:51.119Z,51.74
2023-03-16T08:19:47.152Z,51.02
2023-03-16T08:20:42.721Z,50.99
2023-03-16T08:21:49.236Z,51.07
2023-03-16T08:22:34.755Z,49.62
2023-03-16T08:23:30.780Z,49.51
2023-03-16T08:24:26.799Z,47.64
2023-03-16T08:25:22.818Z,47.85
2023-03-16T08:26:18.392Z,48.34
2023-03-16T08:27:14.416Z,48.22
2023-03-16T08:28:10.447Z,47.19
2023-03-16T08:29:07.680Z,47.27
2023-03-16T08:30:03.593Z,47.76
2023-03-16T08:30:59.652Z,46.94
2023-03-16T08:31:55.682Z,46.21
2023-03-16T08:32:51.249Z,45.26
2023-03-16T08:33:47.239Z,45.25
2023-03-16T08:34:42.774Z,43.51
2023-03-16T08:35:38.445Z,44.81
2023-03-16T08:36:33.892Z,45.12
2023-03-16T08:37:29.443Z,43.96
2023-03-16T08:38:24.985Z,44.57
2023-03-16T08:39:21.533Z,43.02
2023-03-16T08:40:17.114Z,42.92
2023-03-16T08:41:12.643Z,42.59
2023-03-16T08:42:08.677Z,42.88
2023-03-16T08:43:04.237Z,41.43
2023-03-16T08:43:59.795Z,40.92
2023-03-16T08:44:55.839Z,42.13
2023-03-16T08:45:52.871Z,42.10
2023-03-16T08:46:49.043Z,42.19
2023-03-16T08:47:44.490Z,40.23
2023-03-16T08:48:40.004Z,40.52
2023-03-16T08:49:36.041Z,39.02
2023-03-16T08:50:31.759Z,40.09
2023-03-16T08:51:27.670Z,40.00
2023-03-16T08:52:24.192Z,39.98
2023-03-16T08:53:19.786Z,37.13
2023-03-16T08:54:15.800Z,37.85
2023-03-16T08:55:11.834Z,37.83
2023-03-16T08:56:07.384Z,38.42
2023-03-16T08:57:03.423Z,37.79
2023-03-16T08:58:00.470Z,37.37
2023-03-16T08:58:56.488Z,36.96
2023-03-16T08:59:52.521Z,36.14
2023-03-16T09:00:50.520Z,36.12
2023-03-16T09:01:44.634Z,36.02
2023-03-16T09:02:40.620Z,35.80
2023-03-16T09:03:36.666Z,36.69
2023-03-16T09:04:32.887Z,35.86
2023-03-16T09:05:28.714Z,36.27
2023-03-16T09:06:24.732Z,35.35
2023-03-16T09:07:21.772Z,35.43
2023-03-16T09:08:17.791Z,34.91
2023-03-16T09:09:13.812Z,34.50
2023-03-16T09:10:09.853Z,34.79
2023-03-16T09:11:05.898Z,34.37
2023-03-16T09:12:01.921Z,33.76
2023-03-16T09:12:57.956Z,32.54
2023-03-16T09:13:53.975Z,32.23
2023-03-16T09:14:49.995Z,32.83
2023-03-16T09:15:46.052Z,34.02
2023-03-16T09:16:42.152Z,32.20
2023-03-16T09:17:38.118Z,31.19
2023-03-16T09:18:35.150Z,31.07
2023-03-16T09:19:47.864Z,31.07
2023-03-16T09:20:30.041Z,29.85
2023-03-16T09:21:22.766Z,30.74
2023-03-16T09:22:18.796Z,30.34
2023-03-16T09:23:14.827Z,30.43
2023-03-16T09:24:10.400Z,30.52
2023-03-16T09:25:06.415Z,29.42
2023-03-16T09:26:02.445Z,28.80
2023-03-16T09:26:59.058Z,30.10
2023-03-16T09:27:55.047Z,27.89
2023-03-16T09:28:51.070Z,29.18
2023-03-16T09:29:47.101Z,28.86
2023-03-16T09:30:43.108Z,28.65
2023-03-16T09:31:39.169Z,27.75
2023-03-16T09:32:35.334Z,27.95
2023-03-16T09:33:31.185Z,28.53
2023-03-16T09:34:27.738Z,27.92
2023-03-16T09:35:23.251Z,28.02
2023-03-16T09:36:18.852Z,28.51
2023-03-16T09:37:14.817Z,26.41
2023-03-16T09:38:10.841Z,26.41
2023-03-16T09:39:06.882Z,27.00
2023-03-16T09:40:06.922Z,25.49
2023-03-16T09:40:58.971Z,26.39
2023-03-16T09:42:06.256Z,26.58
2023-03-16T09:43:01.818Z,26.27
2023-03-16T09:43:57.833Z,25.97
2023-03-16T09:44:53.866Z,25.37
2023-03-16T09:45:49.944Z,26.35
2023-03-16T09:46:45.922Z,25.46
2023-03-16T09:47:41.489Z,25.74
2023-03-16T09:48:37.520Z,23.95
2023-03-16T09:49:33.548Z,24.85
2023-03-16T09:50:35.272Z,25.23
2023-03-16T09:51:25.238Z,25.43
2023-03-16T09:52:20.718Z,24.51
2023-03-16T09:53:16.275Z,23.03
2023-03-16T09:54:12.307Z,24.62
2023-03-16T09:55:08.343Z,23.33
2023-03-16T09:56:04.397Z,22.63
2023-03-16T09:57:00.409Z,23.53
2023-03-16T09:57:56.438Z,22.44
2023-03-16T09:58:53.512Z,23.13
2023-03-16T09:59:49.503Z,22.23
2023-03-16T10:00:45.591Z,23.12
2023-03-16T10:01:41.566Z,22.12
2023-03-16T10:02:37.612Z,23.11
2023-03-16T10:03:34.693Z,23.10
2023-03-16T10:04:30.230Z,23.10
2023-03-16T10:05:26.248Z,22.89
2023-03-16T10:06:22.305Z,21.39
2023-03-16T10:07:18.360Z,21.19
2023-03-16T10:08:13.925Z,21.79
2023-03-16T10:09:09.490Z,22.39
2023-03-16T10:10:05.506Z,22.09
2023-03-16T10:11:22.542Z,21.49
2023-03-16T10:12:18.594Z,21.39
2023-03-16T10:13:14.149Z,21.00
2023-03-16T10:14:10.172Z,21.48
2023-03-16T10:15:06.281Z,21.28
2023-03-16T10:16:02.402Z,21.17
2023-03-16T10:16:57.940Z,21.46
2023-03-16T10:17:53.388Z,22.36
2023-03-16T10:18:50.426Z,21.35
2023-03-16T10:19:45.992Z,21.74
2023-03-16T10:20:42.071Z,21.54
2023-03-16T10:21:38.066Z,20.36
2023-03-16T10:22:33.656Z,19.97
2023-03-16T10:23:29.624Z,20.57
2023-03-16T10:24:25.651Z,20.48
2023-03-16T10:25:21.202Z,19.59
2023-03-16T10:26:16.876Z,20.38
2023-03-16T10:27:12.915Z,21.26
2023-03-16T10:28:09.974Z,19.67
2023-03-16T10:29:05.507Z,20.68
2023-03-16T10:30:01.064Z,20.59
2023-03-16T10:30:58.127Z,21.17
2023-03-16T10:31:53.799Z,19.37
2023-03-16T10:32:49.805Z,19.48
2023-03-16T10:33:45.744Z,19.68
2023-03-16T10:34:41.773Z,20.67
2023-03-16T10:35:37.807Z,19.48
2023-03-16T10:36:33.401Z,19.67
2023-03-16T10:37:28.957Z,19.07
2023-03-16T10:38:24.487Z,20.25
2023-03-16T10:39:20.523Z,21.23
2023-03-16T10:40:16.080Z,20.03
2023-03-16T10:41:12.134Z,20.62
2023-03-16T10:42:09.659Z,20.21
2023-03-16T10:43:03.728Z,19.02
2023-03-16T10:43:59.771Z,18.52
2023-03-16T10:44:55.307Z,18.91
2023-03-16T10:45:51.379Z,19.02
2023-03-16T10:46:47.502Z,19.41
2023-03-16T10:47:42.947Z,18.91
2023-03-16T10:48:38.526Z,18.52
2023-03-16T10:49:34.542Z,19.71
2023-03-16T10:50:31.059Z,19.51
2023-03-16T10:51:26.589Z,19.21
2023-03-16T10:52:22.622Z,16.75
2023-03-16T10:53:18.709Z,17.25
2023-03-16T10:54:14.255Z,16.37
2023-03-16T10:55:10.273Z,18.65
2023-03-16T10:56:06.292Z,17.06
2023-03-16T10:57:02.329Z,17.54
2023-03-16T10:57:58.401Z,17.44
2023-03-16T10:58:53.912Z,17.53
2023-03-16T10:59:49.950Z,16.46
2023-03-16T11:00:46.516Z,16.88
2023-03-16T11:01:42.081Z,17.16
2023-03-16T11:02:37.602Z,16.57
2023-03-16T11:03:33.154Z,17.66
2023-03-16T11:04:28.729Z,17.46
2023-03-16T11:05:24.263Z,18.43
2023-03-16T11:06:19.827Z,17.83
2023-03-16T11:07:15.852Z,17.43
2023-03-16T11:08:11.911Z,16.72
2023-03-16T11:09:07.923Z,17.32
2023-03-16T11:10:03.490Z,17.21
2023-03-16T11:10:59.047Z,17.61
2023-03-16T11:11:54.617Z,17.41
2023-03-16T11:12:50.624Z,17.31
2023-03-16T11:13:46.654Z,17.80
2023-03-16T11:14:53.470Z,18.10
2023-03-16T11:15:49.520Z,17.49
2023-03-16T11:16:45.550Z,18.18
2023-03-16T11:17:41.590Z,16.89
2023-03-16T11:18:37.277Z,17.98
2023-03-16T11:19:33.145Z,16.50
2023-03-16T11:20:30.299Z,17.09
2023-03-16T11:21:26.863Z,17.49
2023-03-16T11:22:22.424Z,15.80
2023-03-16T11:23:17.983Z,15.32
2023-03-16T11:24:15.051Z,15.22
2023-03-16T11:25:11.075Z,17.40
2023-03-16T11:26:07.104Z,15.92
2023-03-16T11:27:03.129Z,15.23
2023-03-16T11:27:59.158Z,16.61
2023-03-16T11:28:54.721Z,17.19
2023-03-16T11:29:50.271Z,16.00
2023-03-16T11:30:45.843Z,16.29
2023-03-16T11:31:41.383Z,16.78
2023-03-16T11:32:36.988Z,16.29
2023-03-16T11:33:32.960Z,16.19
2023-03-16T11:34:28.563Z,16.19
2023-03-16T11:35:24.077Z,16.88
2023-03-16T11:36:19.678Z,15.50
2023-03-16T11:37:15.659Z,16.00
2023-03-16T11:38:11.701Z,15.30
2023-03-16T11:39:07.242Z,16.00
2023-03-16T11:40:02.810Z,14.72
2023-03-16T11:40:58.824Z,15.31
2023-03-16T11:41:54.375Z,15.70
2023-03-16T11:42:49.927Z,15.61
2023-03-16T11:43:45.476Z,16.19
2023-03-16T11:44:41.038Z,15.11
2023-03-16T11:45:36.592Z,15.70
2023-03-16T11:46:32.703Z,16.19
2023-03-16T11:47:28.174Z,15.49
2023-03-16T11:48:23.720Z,15.99
2023-03-16T11:49:19.288Z,13.73
2023-03-16T11:50:14.837Z,15.21
2023-03-16T11:51:10.860Z,14.83
2023-03-16T11:52:06.408Z,14.43
2023-03-16T11:53:02.435Z,14.72
2023-03-16T11:53:57.985Z,14.72
2023-03-16T11:54:53.538Z,14.71
2023-03-16T11:55:49.129Z,13.64
2023-03-16T11:56:44.659Z,14.34
2023-03-16T11:57:40.218Z,14.83
2023-03-16T11:58:36.250Z,15.21
2023-03-16T11:59:31.803Z,15.51
2023-03-16T12:00:28.371Z,14.71
2023-03-16T12:01:24.078Z,15.20
2023-03-16T12:02:19.643Z,13.73
2023-03-16T12:03:15.253Z,14.33